Time;durP1;ratioP1;P1;durP2;ratioP2;P2;SDS_P1;SDS_P2;PMS_P1;PMS_P2;Temp;Humidity;BMP_temperature;BMP_pressure;BME280_temperature;BME280_humidity;BME280_pressure;Samples;Min_cycle;Max_cycle;Signal;HPM_P1;HPM_P2
2022/12/20 00:02:50;;;;;;;12.38;8.88;;;;;;;-0.84;98.99;102384.25;10625160;27;20043;-71
2022/12/20 00:07:50;;;;;;;13.57;8.90;;;;;;;-0.81;99.03;102378.94;10628313;27;20084;-71
2022/12/20 00:12:51;;;;;;;15.15;9.57;;;;;;;-0.97;98.62;102358.53;10627583;27;20035;-71
2022/12/20 00:17:52;;;;;;;13.50;8.50;;;;;;;-1.01;98.53;102358.69;10628140;27;20049;-71
2022/12/20 00:22:53;;;;;;;15.13;9.48;;;;;;;-0.92;98.75;102371.44;10626754;27;20043;-71
2022/12/20 00:27:54;;;;;;;13.60;8.93;;;;;;;-1.44;98.13;102294.69;10628071;27;20043;-71
2022/12/20 00:32:54;;;;;;;13.93;9.35;;;;;;;-0.92;98.28;102387.97;10609907;27;20042;-71
2022/12/20 00:37:55;;;;;;;14.13;9.10;;;;;;;-1.02;98.95;102376.06;10584133;28;20039;-71
2022/12/20 00:42:56;;;;;;;13.70;9.43;;;;;;;-1.00;98.31;102379.50;10584247;28;20575;-71
2022/12/20 00:47:57;;;;;;;16.15;9.57;;;;;;;-1.10;97.94;102356.34;10583557;28;20435;-72
2022/12/20 00:52:57;;;;;;;15.27;9.75;;;;;;;-0.99;98.07;102382.94;10584208;28;20051;-72
2022/12/20 00:57:58;;;;;;;14.18;9.80;;;;;;;-0.98;98.27;102380.31;10582855;28;20047;-71
2022/12/20 01:02:59;;;;;;;15.45;10.32;;;;;;;-1.49;97.82;102293.97;10582037;28;20047;-71
2022/12/20 01:08:00;;;;;;;15.02;10.05;;;;;;;-1.03;97.93;102383.94;10587875;27;20251;-71
2022/12/20 01:13:00;;;;;;;14.93;10.07;;;;;;;-1.31;97.19;102350.81;10623739;27;20042;-71
2022/12/20 01:18:01;;;;;;;14.60;9.52;;;;;;;-1.52;97.04;102310.56;10625093;27;20035;-71
2022/12/20 01:23:02;;;;;;;15.48;10.05;;;;;;;-1.20;96.66;102376.56;10624881;27;20039;-71
2022/12/20 01:28:03;;;;;;;15.30;10.43;;;;;;;-1.05;96.37;102383.13;10624599;27;20482;-71
2022/12/20 01:33:04;;;;;;;14.88;10.10;;;;;;;-1.03;95.58;102386.56;10624138;27;20089;-71
2022/12/20 01:38:05;;;;;;;16.65;11.30;;;;;;;-1.61;95.71;102293.41;10624802;27;20031;-71
2022/12/20 01:43:10;;;;;;;15.55;10.25;;;;;;;-1.05;95.59;102394.41;10623332;27;20490;-71
2022/12/20 01:48:12;;;;;;;14.98;10.25;;;;;;;-1.07;95.22;102377.97;10609322;27;20059;-72
2022/12/20 01:53:15;;;;;;;20.23;11.15;;;;;;;-1.17;95.14;102374.75;10607644;27;20448;-72
2022/12/20 01:58:18;;;;;;;14.25;9.57;;;;;;;-1.12;94.14;102392.03;10582127;28;20486;-72
2022/12/20 02:03:19;;;;;;;17.17;10.97;;;;;;;-1.61;94.79;102305.59;10585803;27;20043;-72
2022/12/20 02:08:20;;;;;;;14.52;9.20;;;;;;;-1.20;94.66;102379.19;10623119;27;20035;-72
2022/12/20 02:13:48;;;;;;;14.13;9.43;;;;;;;-1.03;92.91;102397.84;10595102;27;20035;-72
2022/12/20 02:19:00;;;;;;;15.50;8.43;;;;;;;-1.05;93.94;102398.78;10569608;28;20628;-72
2022/12/20 02:24:24;;;;;;;14.30;9.38;;;;;;;-1.17;92.38;102392.13;10580274;28;20043;-72
2022/12/20 02:29:56;;;;;;;13.05;8.57;;;;;;;-1.45;93.37;102353.78;10579500;28;20410;-72
2022/12/20 02:34:56;;;;;;;13.60;9.05;;;;;;;-1.19;94.03;102392.19;10587462;27;20042;-72
2022/12/20 02:39:57;;;;;;;12.55;8.35;;;;;;;-1.17;93.52;102387.81;10622256;27;20494;-72
2022/12/20 02:45:14;;;;;;;13.68;8.48;;;;;;;-1.10;93.23;102395.47;10603700;28;20141;-72
2022/12/20 02:50:20;;;;;;;13.48;8.93;;;;;;;-1.18;92.90;102387.84;10622180;28;20063;-72
2022/12/20 02:55:35;;;;;;;11.30;7.70;;;;;;;-1.30;92.62;102388.16;10622157;28;20545;-72
2022/12/20 03:00:42;;;;;;;11.73;7.90;;;;;;;-1.67;92.19;102322.25;10622003;28;20039;-73
2022/12/20 03:05:45;;;;;;;12.98;8.43;;;;;;;-1.41;92.97;102385.84;10622243;28;20039;-70
2022/12/20 03:10:47;;;;;;;13.40;8.77;;;;;;;-1.33;92.94;102404.75;10600444;28;20047;-71
2022/12/20 03:15:48;;;;;;;12.13;8.57;;;;;;;-1.30;92.76;102411.63;10604086;28;20473;-71
2022/12/20 03:20:49;;;;;;;12.25;7.85;;;;;;;-1.25;92.86;102428.88;10597525;28;20126;-72
2022/12/20 03:25:50;;;;;;;13.15;7.63;;;;;;;-1.23;92.04;102416.63;10622833;27;20038;-72
2022/12/20 03:30:50;;;;;;;12.60;7.90;;;;;;;-1.28;92.47;102391.59;10623344;27;20027;-72
2022/12/20 03:35:51;;;;;;;13.10;8.60;;;;;;;-1.75;92.12;102338.97;10622946;27;20043;-72
2022/12/20 03:40:52;;;;;;;12.20;7.90;;;;;;;-1.61;91.82;102357.72;10622635;27;20046;-72
2022/12/20 03:45:53;;;;;;;12.70;8.65;;;;;;;-1.69;92.59;102344.03;10603872;27;20133;-72
2022/12/20 03:50:54;;;;;;;11.60;7.90;;;;;;;-1.20;92.59;102447.00;10627273;27;20039;-70
2022/12/20 03:55:55;;;;;;;12.00;7.32;;;;;;;-1.37;91.88;102447.44;10573321;27;20403;-71
2022/12/20 04:00:56;;;;;;;11.73;7.60;;;;;;;-1.35;91.67;102444.78;10590224;27;20100;-70
2022/12/20 04:05:57;;;;;;;12.52;7.45;;;;;;;-1.48;91.48;102460.75;10619664;27;20043;-69
2022/12/20 04:11:16;;;;;;;13.45;8.23;;;;;;;-1.54;91.26;102458.28;10610244;27;20062;-69
2022/12/20 04:16:21;;;;;;;12.15;8.23;;;;;;;-2.04;90.70;102377.00;10597392;27;20551;-70
2022/12/20 04:21:24;;;;;;;15.35;8.50;;;;;;;-1.49;90.98;102455.59;10570605;27;20043;-69
2022/12/20 04:26:25;;;;;;;16.52;8.48;;;;;;;-2.01;90.95;102379.53;10571019;28;20133;-72
2022/12/20 04:31:26;;;;;;;10.77;7.57;;;;;;;-1.64;91.11;102451.63;10591782;27;20054;-76
2022/12/20 04:36:27;;;;;;;10.73;6.80;;;;;;;-1.64;91.15;102473.31;10621223;27;20067;-73
2022/12/20 04:41:28;;;;;;;11.82;7.22;;;;;;;-1.72;90.09;102477.00;10626132;27;20047;-71
2022/12/20 04:46:29;;;;;;;12.23;7.53;;;;;;;-2.24;90.78;102402.66;10600105;27;20059;-70
2022/12/20 04:51:30;;;;;;;12.07;8.20;;;;;;;-1.92;90.39;102473.09;10621743;27;20127;-71
2022/12/20 04:56:31;;;;;;;10.88;7.10;;;;;;;-1.83;90.42;102504.13;10610689;27;20133;-71
2022/12/20 05:01:31;;;;;;;13.02;8.07;;;;;;;-2.48;89.82;102410.16;10584191;28;20135;-72
2022/12/20 05:06:32;;;;;;;11.57;7.63;;;;;;;-2.27;90.01;102447.00;10582694;28;20123;-71
2022/12/20 05:11:33;;;;;;;10.77;7.03;;;;;;;-2.08;89.67;102484.75;10582950;28;20038;-71
2022/12/20 05:16:34;;;;;;;12.00;7.57;;;;;;;-2.29;89.80;102447.03;10582496;28;20043;-71
2022/12/20 05:26:54;;;;;;;11.55;7.35;;;;;;;-1.89;89.21;102508.63;10582044;28;20445;-72
2022/12/20 05:31:54;;;;;;;9.95;7.03;;;;;;;-1.81;88.72;102496.31;10582241;28;20089;-71
2022/12/20 05:36:55;;;;;;;12.88;7.53;;;;;;;-1.70;88.82;102536.00;10581907;28;20050;-71
2022/12/20 05:41:56;;;;;;;12.30;7.85;;;;;;;-1.73;88.57;102541.28;10581573;28;20502;-71
2022/12/20 05:46:57;;;;;;;9.73;7.20;;;;;;;-1.74;88.44;102542.16;10580752;28;20058;-71
2022/12/20 05:51:58;;;;;;;10.63;7.50;;;;;;;-1.57;88.54;102551.34;10562987;28;20070;-71
2022/12/20 05:56:58;;;;;;;10.98;7.28;;;;;;;-1.33;87.81;102534.25;10581006;28;20479;-72
2022/12/20 06:01:59;;;;;;;10.43;7.35;;;;;;;-1.18;87.38;102507.78;10562924;28;20407;-71
2022/12/20 06:07:00;;;;;;;11.88;7.43;;;;;;;-1.81;86.61;102391.25;10581781;28;20035;-71
2022/12/20 06:12:01;;;;;;;10.77;7.82;;;;;;;-0.80;85.86;102545.09;10580405;28;20067;-71
2022/12/20 06:17:01;;;;;;;10.85;7.50;;;;;;;-0.68;86.04;102531.69;10579777;28;20038;-71
2022/12/20 06:22:02;;;;;;;11.05;7.30;;;;;;;-0.69;85.63;102553.47;10580323;28;20043;-71
2022/12/20 06:27:03;;;;;;;9.90;6.80;;;;;;;-0.66;85.38;102539.47;10580636;28;20613;-71
2022/12/20 06:32:04;;;;;;;11.10;7.25;;;;;;;-0.62;85.65;102512.41;10580171;28;20071;-72
2022/12/20 06:37:05;;;;;;;11.15;7.53;;;;;;;-0.40;84.58;102538.75;10580447;28;20118;-71
2022/12/20 06:42:05;;;;;;;16.27;8.30;;;;;;;-0.55;83.92;102527.84;10579689;28;20380;-71
2022/12/20 06:47:07;;;;;;;12.35;7.85;;;;;;;-0.79;83.45;102489.38;10579653;28;20059;-71
2022/12/20 06:52:08;;;;;;;10.98;7.55;;;;;;;-0.33;83.61;102555.94;10578961;28;20490;-71
2022/12/20 06:57:08;;;;;;;13.38;7.68;;;;;;;-0.21;83.47;102570.41;10579974;28;20040;-71
2022/12/20 07:02:13;;;;;;;11.32;7.53;;;;;;;-0.36;80.90;102563.88;10587988;28;20052;-71
2022/12/20 07:07:13;;;;;;;;;;;;;;;0.04;80.68;102588.88;10588508;28;20044;-71
2022/12/20 07:12:14;;;;;;;11.20;7.38;;;;;;;-0.75;82.42;102467.50;10587239;28;19915;-71
2022/12/20 07:17:15;;;;;;;10.93;7.13;;;;;;;-0.17;82.92;102567.69;10588442;28;20600;-71
2022/12/20 07:22:16;;;;;;;11.25;7.22;;;;;;;-0.06;82.62;102583.03;10586601;28;20173;-71
2022/12/20 07:27:17;;;;;;;10.15;7.45;;;;;;;0.15;82.22;102576.31;10587168;28;20556;-70
2022/12/20 07:32:18;;;;;;;9.68;7.00;;;;;;;0.18;82.12;102579.72;10587135;28;20046;-70
2022/12/20 07:37:18;;;;;;;10.65;7.50;;;;;;;0.18;81.41;102589.28;10586362;28;20063;-70
2022/12/20 07:42:19;;;;;;;11.48;8.15;;;;;;;-0.04;81.82;102521.16;10587393;28;20049;-70
2022/12/20 07:47:20;;;;;;;10.68;7.68;;;;;;;-0.03;81.38;102510.66;10586383;28;20518;-70
2022/12/20 07:52:25;;;;;;;11.18;7.57;;;;;;;0.57;80.72;102579.41;10586067;28;20127;-70
2022/12/20 07:57:35;;;;;;;10.88;7.57;;;;;;;0.25;79.92;102499.34;10585969;28;20074;-71
2022/12/20 08:02:45;;;;;;;11.90;8.23;;;;;;;0.75;79.36;102559.63;10585822;28;20046;-71
2022/12/20 08:07:47;;;;;;;12.80;8.40;;;;;;;0.85;80.52;102561.03;10585548;28;20044;-70
2022/12/20 08:12:49;;;;;;;10.10;7.53;;;;;;;0.79;80.35;102531.59;10584305;28;20043;-69
2022/12/20 08:17:50;;;;;;;10.23;7.72;;;;;;;0.13;79.85;102450.09;10585115;28;20093;-70
2022/12/20 08:22:51;;;;;;;11.63;8.05;;;;;;;0.34;79.76;102475.53;10584322;28;20074;-69
2022/12/20 08:27:52;;;;;;;12.88;9.50;;;;;;;0.62;79.81;102513.84;10585494;28;20578;-70
2022/12/20 08:32:52;;;;;;;15.30;11.40;;;;;;;0.57;80.06;102519.25;10584342;28;20039;-69
2022/12/20 08:37:53;;;;;;;18.23;12.98;;;;;;;0.61;79.62;102493.84;10584828;28;20047;-70
2022/12/20 08:42:54;;;;;;;18.92;12.27;;;;;;;0.85;80.08;102502.63;10566048;28;20042;-69
2022/12/20 08:47:55;;;;;;;18.08;12.68;;;;;;;0.71;80.28;102460.38;10583705;28;20439;-70
2022/12/20 08:52:56;;;;;;;18.85;13.35;;;;;;;0.54;80.20;102419.09;10584455;28;20047;-70
2022/12/20 08:57:56;;;;;;;21.08;13.70;;;;;;;0.77;80.15;102442.69;10583580;28;20122;-69
2022/12/20 09:02:57;;;;;;;23.33;13.45;;;;;;;0.80;79.27;102462.66;10583271;28;20039;-70
2022/12/20 09:07:58;;;;;;;21.42;14.90;;;;;;;0.80;80.05;102454.81;10583045;28;20039;-70
2022/12/20 09:12:58;;;;;;;20.30;14.63;;;;;;;0.81;79.74;102438.22;10583770;28;20506;-69
2022/12/20 09:17:59;;;;;;;18.15;12.95;;;;;;;0.79;79.83;102455.72;10582706;28;20040;-70
2022/12/20 09:23:00;;;;;;;21.17;14.18;;;;;;;0.45;79.58;102381.91;10582017;28;20513;-69
2022/12/20 09:28:01;;;;;;;18.75;13.73;;;;;;;0.91;79.47;102418.66;10583072;28;20051;-70
2022/12/20 09:33:02;;;;;;;19.30;13.70;;;;;;;1.02;79.52;102436.63;10582459;28;20522;-72
2022/12/20 09:38:02;;;;;;;18.45;13.65;;;;;;;0.89;79.54;102438.78;10581813;28;20181;-70
2022/12/20 09:43:07;;;;;;;19.25;13.35;;;;;;;0.92;79.91;102436.06;10581449;28;20517;-71
2022/12/20 09:48:21;;;;;;;18.25;13.45;;;;;;;0.91;78.21;102439.59;10581804;28;20052;-69
2022/12/20 09:54:01;;;;;;;19.05;13.30;;;;;;;1.06;78.25;102422.50;10581200;28;20078;-69
2022/12/20 09:59:19;;;;;;;18.33;13.73;;;;;;;0.97;78.07;102421.06;10409515;28;20037;-69
2022/12/20 10:04:27;;;;;;;20.00;12.98;;;;;;;0.87;78.59;102419.69;10550949;28;20047;-69
2022/12/20 10:09:46;;;;;;;18.63;13.75;;;;;;;1.06;78.80;102417.25;10580743;28;20040;-69
2022/12/20 10:15:08;;;;;;;26.38;14.88;;;;;;;1.17;79.78;102409.88;10581088;28;20039;-69
2022/12/20 10:20:57;;;;;;;20.80;13.82;;;;;;;1.31;79.58;102384.00;10580827;28;20407;-69
2022/12/20 10:25:58;;;;;;;15.95;12.25;;;;;;;0.94;79.97;102333.97;10487164;28;20388;-69
2022/12/20 10:31:12;;;;;;;19.27;13.05;;;;;;;1.30;78.92;102365.75;10580054;28;20039;-70
2022/12/20 10:36:29;;;;;;;19.63;13.50;;;;;;;1.46;79.15;102385.19;10580244;28;20084;-69
2022/12/20 10:41:33;;;;;;;18.98;12.48;;;;;;;1.41;79.35;102375.78;10562103;28;20043;-70
2022/12/20 10:46:46;;;;;;;18.67;12.38;;;;;;;1.28;78.03;102365.78;10579905;28;20048;-70
2022/12/20 10:51:55;;;;;;;18.00;12.50;;;;;;;1.19;78.17;102394.94;10579588;28;20074;-69
2022/12/20 10:57:02;;;;;;;18.40;13.05;;;;;;;1.06;78.98;102398.94;10579280;28;20501;-70
2022/12/20 11:02:24;;;;;;;18.60;12.65;;;;;;;1.00;77.69;102380.84;10579342;28;20039;-70
2022/12/20 11:07:29;;;;;;;17.58;11.90;;;;;;;0.93;79.36;102379.34;10578787;28;20035;-70
2022/12/20 11:12:29;;;;;;;16.17;11.70;;;;;;;0.52;79.19;102324.16;10578485;28;20563;-71
2022/12/20 11:17:40;;;;;;;17.15;11.43;;;;;;;0.19;79.27;102269.53;10578591;28;20039;-70
2022/12/20 11:23:19;;;;;;;19.98;12.50;;;;;;;0.97;79.49;102365.25;10578556;28;20131;-70
2022/12/20 11:28:48;;;;;;;15.65;11.10;;;;;;;0.85;78.39;102371.78;10480383;28;20040;-70
2022/12/20 11:33:58;;;;;;;16.17;11.18;;;;;;;0.47;78.70;102286.84;10560598;28;20407;-70
2022/12/20 11:39:08;;;;;;;18.52;11.80;;;;;;;0.85;78.83;102350.84;10579235;28;20168;-71
2022/12/20 11:44:46;;;;;;;17.85;11.82;;;;;;;0.82;78.57;102351.81;10561862;28;20405;-71
2022/12/20 11:50:20;;;;;;;15.48;10.98;;;;;;;0.78;79.06;102355.47;10587054;28;20070;-70
2022/12/20 11:55:28;;;;;;;15.23;10.75;;;;;;;0.19;79.08;102272.16;10586046;28;20475;-70
2022/12/20 12:00:34;;;;;;;15.75;11.60;;;;;;;0.04;79.31;102246.56;10585335;28;20071;-71
2022/12/20 12:05:44;;;;;;;16.50;11.55;;;;;;;0.13;79.53;102275.84;10586077;28;20563;-70
2022/12/20 12:11:12;;;;;;;17.27;11.40;;;;;;;0.59;79.05;102359.63;10585881;28;20032;-70
2022/12/20 12:16:26;;;;;;;17.17;11.02;;;;;;;0.32;80.14;102351.84;10602166;27;20027;-71
2022/12/20 12:21:36;;;;;;;17.67;11.57;;;;;;;0.20;80.47;102347.03;10605026;27;20036;-71
2022/12/20 12:26:39;;;;;;;14.30;10.48;;;;;;;-0.25;80.41;102272.75;10604569;27;20039;-70
2022/12/20 12:32:07;;;;;;;14.43;11.10;;;;;;;0.13;79.32;102342.94;10576582;27;20422;-70
2022/12/20 12:37:48;;;;;;;17.45;11.90;;;;;;;0.00;80.54;102334.66;10568025;28;20054;-71
2022/12/20 12:42:58;;;;;;;16.58;11.23;;;;;;;-0.07;81.36;102322.69;10567619;27;20047;-72
2022/12/20 12:48:19;;;;;;;16.58;12.18;;;;;;;-0.14;80.77;102316.81;10549121;27;20146;-73
2022/12/20 12:53:44;;;;;;;17.50;11.85;;;;;;;-0.31;81.35;102322.56;10563560;27;20519;-71
2022/12/20 12:59:05;;;;;;;16.05;10.82;;;;;;;-0.33;82.27;102328.75;10597160;27;20035;-72
2022/12/20 13:04:22;;;;;;;19.15;11.93;;;;;;;-0.39;82.17;102321.13;10622712;27;20047;-72
2022/12/20 13:09:26;;;;;;;18.13;12.85;;;;;;;-0.53;81.91;102337.22;10625700;27;20039;-72
2022/12/20 13:14:27;;;;;;;19.70;12.77;;;;;;;-0.63;82.30;102327.97;10625518;27;20039;-72
2022/12/20 13:19:28;;;;;;;18.70;12.35;;;;;;;-1.26;82.62;102243.75;10606858;27;20137;-72
2022/12/20 13:24:55;;;;;;;19.65;13.57;;;;;;;-1.01;82.11;102302.13;10564547;28;20058;-72
2022/12/20 13:29:57;;;;;;;20.75;13.43;;;;;;;-0.94;83.04;102334.97;10583422;27;20043;-72
2022/12/20 13:34:58;;;;;;;20.00;13.18;;;;;;;-1.42;83.83;102267.69;10583153;28;20051;-72
2022/12/20 13:40:00;;;;;;;23.52;14.65;;;;;;;-1.06;84.21;102322.28;10616511;27;20039;-72
2022/12/20 13:45:03;;;;;;;21.80;13.63;;;;;;;-1.69;84.89;102222.41;10623536;27;20039;-72
2022/12/20 13:50:34;;;;;;;21.00;12.10;;;;;;;-1.22;85.45;102318.41;10623071;27;20127;-72
2022/12/20 13:55:38;;;;;;;19.90;12.45;;;;;;;-2.32;85.85;102143.41;10584339;27;20460;-72
2022/12/20 14:00:41;;;;;;;21.27;14.15;;;;;;;-1.42;86.14;102303.31;10622852;27;20047;-72
2022/12/20 14:05:42;;;;;;;20.80;13.40;;;;;;;-1.66;87.30;102271.81;10616400;27;20080;-72
2022/12/20 14:10:42;;;;;;;23.58;14.50;;;;;;;-1.81;86.61;102266.19;10579904;28;20048;-72
2022/12/20 14:15:43;;;;;;;25.80;12.80;;;;;;;-1.76;86.82;102301.66;10580572;28;20046;-71
2022/12/20 14:20:50;;;;;;;22.58;13.82;;;;;;;-2.33;87.49;102222.41;10580139;28;20046;-72
2022/12/20 14:25:59;;;;;;;20.52;12.25;;;;;;;-1.98;87.66;102293.50;10562295;28;20059;-72
2022/12/20 14:31:02;;;;;;;23.67;12.55;;;;;;;-3.08;88.17;102121.94;10580728;28;20051;-72
2022/12/20 14:36:32;;;;;;;18.13;12.35;;;;;;;-2.02;89.20;102306.69;10562112;28;20049;-72
2022/12/20 14:41:38;;;;;;;16.75;10.48;;;;;;;-2.31;88.40;102316.06;10577494;28;20054;-70
2022/12/20 14:46:45;;;;;;;21.70;11.88;;;;;;;-2.61;88.36;102273.41;10568537;28;20415;-70
2022/12/20 14:51:46;;;;;;;22.48;10.88;;;;;;;-2.61;88.44;102296.81;10580657;28;20039;-70
2022/12/20 14:56:50;;;;;;;19.25;11.63;;;;;;;-2.89;88.92;102289.66;10597975;28;20035;-71
2022/12/20 15:01:52;;;;;;;36.65;19.25;;;;;;;-3.16;89.03;102259.91;10593308;28;20079;-71
2022/12/20 15:06:53;;;;;;;28.60;15.65;;;;;;;-3.00;89.16;102302.88;10560905;28;20044;-70
2022/12/20 15:11:56;;;;;;;24.75;14.07;;;;;;;-3.02;89.70;102321.97;10543904;28;20036;-71
2022/12/20 15:16:57;;;;;;;31.30;14.63;;;;;;;-3.64;89.67;102212.41;10582232;28;20167;-70
2022/12/20 15:21:59;;;;;;;28.00;14.40;;;;;;;-3.11;90.44;102296.19;10583976;27;20122;-71
2022/12/20 15:26:59;;;;;;;28.10;14.95;;;;;;;-3.06;90.08;102302.16;10563852;28;20533;-71
2022/12/20 15:32:14;;;;;;;27.23;15.20;;;;;;;-3.58;91.15;102226.13;10583205;27;20074;-73
2022/12/20 15:37:16;;;;;;;26.63;14.48;;;;;;;-3.13;90.78;102311.81;10587617;27;20126;-69
2022/12/20 15:42:19;;;;;;;24.83;14.60;;;;;;;-3.24;90.91;102317.22;10589171;27;20482;-71
2022/12/20 15:47:20;;;;;;;24.53;13.47;;;;;;;-3.51;90.57;102281.41;10612709;27;20046;-72
2022/12/20 15:52:22;;;;;;;21.42;13.45;;;;;;;-3.48;90.43;102305.59;10628682;27;20095;-73
2022/12/20 15:57:23;;;;;;;26.98;14.50;;;;;;;-3.57;90.91;102310.09;10602331;27;20046;-72
2022/12/20 16:02:26;;;;;;;29.02;17.45;;;;;;;-4.20;91.09;102181.47;10628385;27;20046;-73
2022/12/20 16:07:27;;;;;;;29.20;15.98;;;;;;;-3.45;91.23;102294.28;10624397;27;20070;-72
2022/12/20 16:12:33;;;;;;;29.05;18.38;;;;;;;-3.69;90.63;102275.69;10602559;27;20410;-72
2022/12/20 16:17:34;;;;;;;36.45;19.35;;;;;;;-3.53;90.77;102296.16;10623282;27;20484;-72
2022/12/20 16:22:35;;;;;;;33.92;17.50;;;;;;;-3.66;90.56;102290.34;10609980;27;20088;-72
2022/12/20 16:27:35;;;;;;;29.08;17.23;;;;;;;-3.79;91.08;102281.94;10627774;27;20045;-72
2022/12/20 16:32:36;;;;;;;32.65;18.00;;;;;;;-3.95;91.10;102249.34;10621419;27;20052;-72
2022/12/20 16:37:37;;;;;;;30.98;17.65;;;;;;;-3.78;91.01;102272.41;10612479;27;20039;-72
2022/12/20 16:42:38;;;;;;;32.92;16.30;;;;;;;-4.18;90.87;102227.28;10622612;27;20118;-72
2022/12/20 16:47:38;;;;;;;30.00;17.60;;;;;;;-4.45;90.66;102176.72;10617814;27;20055;-72
2022/12/20 16:52:40;;;;;;;29.25;15.18;;;;;;;-4.04;91.05;102257.31;10626442;27;20039;-72
2022/12/20 16:57:41;;;;;;;30.42;16.77;;;;;;;-4.54;90.64;102168.25;10603894;27;20047;-72
2022/12/20 17:02:42;;;;;;;31.02;16.98;;;;;;;-4.29;90.87;102239.56;10602316;27;20563;-72
2022/12/20 17:07:44;;;;;;;31.83;17.17;;;;;;;-4.27;90.70;102239.56;10603923;27;20395;-72
2022/12/20 17:12:45;;;;;;;31.65;17.25;;;;;;;-4.43;90.93;102224.25;10604109;27;20047;-72
2022/12/20 17:17:46;;;;;;;42.50;20.88;;;;;;;-4.42;90.65;102244.13;10624908;27;20045;-72
2022/12/20 17:22:52;;;;;;;61.13;27.08;;;;;;;-4.91;91.16;102169.69;10601848;27;20043;-72
2022/12/20 17:27:54;;;;;;;54.22;23.60;;;;;;;-4.61;90.81;102237.50;10582578;28;20039;-72
2022/12/20 17:32:55;;;;;;;60.05;27.05;;;;;;;-4.93;91.05;102209.50;10563987;28;20039;-72
2022/12/20 17:37:56;;;;;;;45.15;22.35;;;;;;;-4.88;90.90;102207.69;10587100;27;20031;-72
2022/12/20 17:42:57;;;;;;;52.80;22.85;;;;;;;-4.81;91.48;102206.72;10598504;27;20525;-72
2022/12/20 17:47:59;;;;;;;50.20;22.13;;;;;;;-4.85;91.46;102184.31;10617000;27;20056;-72
2022/12/20 17:53:00;;;;;;;55.67;23.67;;;;;;;-4.89;91.51;102151.53;10600800;27;20050;-72
2022/12/20 17:58:00;;;;;;;57.10;23.45;;;;;;;-4.86;91.42;102170.50;10590382;27;20043;-71
2022/12/20 18:03:01;;;;;;;52.20;23.73;;;;;;;-5.25;91.44;102095.97;10562410;28;20043;-71
2022/12/20 18:08:02;;;;;;;51.50;22.85;;;;;;;-5.01;91.18;102131.88;10580322;28;20039;-71
2022/12/20 18:13:03;;;;;;;46.72;22.77;;;;;;;-4.99;90.83;102137.03;10590120;27;20039;-72
2022/12/20 18:18:04;;;;;;;46.15;22.30;;;;;;;-4.73;90.96;102168.53;10622440;27;20035;-72
2022/12/20 18:23:05;;;;;;;50.22;22.40;;;;;;;-4.74;90.78;102177.22;10622969;27;20064;-71
2022/12/20 18:28:06;;;;;;;48.58;21.90;;;;;;;-4.90;90.71;102152.44;10622905;27;20039;-72
2022/12/20 18:33:06;;;;;;;53.78;23.30;;;;;;;-5.82;90.19;102012.25;10622545;27;20504;-72
2022/12/20 18:38:07;;;;;;;56.83;22.10;;;;;;;-5.14;91.13;102120.00;10622213;27;20129;-71
2022/12/20 18:43:08;;;;;;;44.55;20.55;;;;;;;-4.88;90.58;102155.84;10592309;27;20054;-72
2022/12/20 18:48:09;;;;;;;41.75;21.10;;;;;;;-5.19;90.20;102138.19;10600805;27;20574;-72
2022/12/20 18:53:10;;;;;;;47.28;21.92;;;;;;;-5.39;90.56;102122.94;10624648;27;20519;-72
2022/12/20 18:58:12;;;;;;;44.75;23.05;;;;;;;-5.65;90.95;102065.47;10618566;27;20035;-72
2022/12/20 19:03:13;;;;;;;38.90;20.27;;;;;;;-5.23;90.95;102121.00;10636154;27;20047;-72
2022/12/20 19:08:13;;;;;;;47.38;20.88;;;;;;;-4.96;91.05;102145.59;10614675;27;20043;-72
2022/12/20 19:13:16;;;;;;;48.60;19.77;;;;;;;-4.79;91.82;102136.69;10524619;28;20135;-68
2022/12/20 19:18:17;;;;;;;46.95;17.80;;;;;;;-5.17;91.39;102048.34;10550821;28;20461;-70
2022/12/20 19:23:19;;;;;;;42.67;17.75;;;;;;;-4.57;92.19;102119.03;10550727;28;20043;-69
2022/12/20 19:28:20;;;;;;;182.90;19.33;;;;;;;-4.94;92.67;102042.75;10550007;28;20032;-69
2022/12/20 19:33:21;;;;;;;81.95;18.05;;;;;;;-4.39;93.29;102121.28;10550295;28;20490;-71
2022/12/20 19:38:21;;;;;;;82.00;18.98;;;;;;;-4.41;93.48;102104.88;10586385;27;20110;-70
2022/12/20 19:43:22;;;;;;;91.55;18.02;;;;;;;-4.20;94.30;102112.25;10627027;27;20069;-69
2022/12/20 19:48:23;;;;;;;159.45;18.50;;;;;;;-4.13;94.58;102116.44;10611838;27;20142;-69
2022/12/20 19:53:24;;;;;;;185.20;20.05;;;;;;;-4.44;94.58;102056.50;10591674;28;20039;-69
2022/12/20 19:58:24;;;;;;;157.20;20.40;;;;;;;-4.05;93.97;102113.69;10603521;27;20047;-70
2022/12/20 20:03:25;;;;;;;100.93;18.55;;;;;;;-4.25;94.26;102064.78;10635187;27;20050;-70
2022/12/20 20:08:26;;;;;;;228.35;18.58;;;;;;;-4.28;94.57;102067.44;10603880;27;20543;-70
2022/12/20 20:13:28;;;;;;;425.90;24.40;;;;;;;-4.22;95.19;102080.31;10585079;28;20039;-70
2022/12/20 20:18:31;;;;;;;367.42;23.50;;;;;;;-4.79;95.18;101981.13;10585311;28;20134;-70
2022/12/20 20:23:32;;;;;;;160.47;19.70;;;;;;;-4.43;95.74;102021.03;10584762;28;20048;-70
2022/12/20 20:28:34;;;;;;;216.75;19.90;;;;;;;-4.03;95.67;102074.72;10581736;27;20550;-70
2022/12/20 20:33:36;;;;;;;191.65;19.83;;;;;;;-4.61;95.80;101972.97;10626436;27;20117;-69
2022/12/20 20:38:36;;;;;;;412.15;21.42;;;;;;;-4.24;95.58;102048.34;10627809;27;20118;-69
2022/12/20 20:43:37;;;;;;;407.30;22.58;;;;;;;-4.49;95.38;102008.19;10626769;27;20047;-70
2022/12/20 20:48:39;;;;;;;308.85;19.25;;;;;;;-4.32;95.53;102029.47;10626326;27;20055;-69
2022/12/20 20:53:40;;;;;;;281.08;22.45;;;;;;;-4.31;95.89;102015.59;10625666;27;20062;-69
2022/12/20 20:58:41;;;;;;;163.63;18.45;;;;;;;-4.66;95.79;101941.13;10625681;27;20118;-70
2022/12/20 21:03:42;;;;;;;275.67;21.05;;;;;;;-4.34;95.82;102000.09;10625954;27;20070;-70
2022/12/20 21:08:43;;;;;;;46.75;16.10;;;;;;;-4.35;96.63;101985.44;10626345;27;20067;-69
2022/12/20 21:13:44;;;;;;;259.23;20.45;;;;;;;-4.60;96.17;101980.75;10625984;27;20034;-70
2022/12/20 21:18:52;;;;;;;167.73;17.08;;;;;;;-4.50;96.76;101993.53;10624271;27;20061;-70
2022/12/20 21:23:53;;;;;;;228.93;19.08;;;;;;;-4.50;96.59;101999.56;10624981;27;20379;-70
2022/12/20 21:28:58;;;;;;;328.65;19.27;;;;;;;-5.16;96.16;101884.22;10624593;27;20046;-71
2022/12/20 21:33:59;;;;;;;265.52;18.95;;;;;;;-4.46;96.64;102000.34;10624512;27;20117;-70
2022/12/20 21:39:00;;;;;;;212.77;19.63;;;;;;;-4.87;96.68;101916.50;10624534;27;20149;-71
2022/12/20 21:44:01;;;;;;;360.88;20.20;;;;;;;-4.49;96.30;101975.31;10623764;27;20486;-71
2022/12/20 21:49:02;;;;;;;253.15;16.75;;;;;;;-4.61;96.13;101965.22;10624531;27;20560;-72
2022/12/20 21:54:03;;;;;;;173.30;15.02;;;;;;;-4.86;96.06;101949.31;10624148;27;20035;-72
2022/12/20 21:59:04;;;;;;;231.38;16.77;;;;;;;-4.90;96.04;101963.22;10623900;27;20126;-70
2022/12/20 22:04:06;;;;;;;213.32;15.95;;;;;;;-5.21;96.34;101945.63;10623650;27;20458;-70
2022/12/20 22:09:08;;;;;;;183.50;15.57;;;;;;;-5.28;96.21;101954.41;10623516;27;20081;-71
2022/12/20 22:14:11;;;;;;;91.90;13.57;;;;;;;-5.38;96.24;101952.88;10623447;27;20052;-71
2022/12/20 22:19:14;;;;;;;144.15;14.45;;;;;;;-5.47;96.90;101953.88;10622655;27;20502;-71
2022/12/20 22:24:15;;;;;;;180.50;16.27;;;;;;;-5.90;96.72;101870.91;10622288;27;20035;-71
2022/12/20 22:29:15;;;;;;;189.05;15.65;;;;;;;-5.59;96.60;101915.25;10621715;27;20046;-71
2022/12/20 22:34:16;;;;;;;333.25;18.88;;;;;;;-5.53;96.60;101936.72;10622797;27;20699;-70
2022/12/20 22:39:17;;;;;;;246.55;17.80;;;;;;;-5.91;96.56;101918.38;10622883;27;20039;-70
2022/12/20 22:44:18;;;;;;;238.73;13.85;;;;;;;-6.11;97.16;101910.94;10621665;27;20047;-71
2022/12/20 22:49:19;;;;;;;171.35;13.82;;;;;;;-6.23;97.07;101901.63;10622394;27;20086;-71
2022/12/20 22:54:20;;;;;;;226.60;15.23;;;;;;;-6.25;96.89;101904.25;10622081;28;20035;-70
2022/12/20 22:59:21;;;;;;;271.15;16.02;;;;;;;-6.21;96.92;101907.66;10579126;28;20047;-72